Time;durP1;ratioP1;P1;durP2;ratioP2;P2;SDS_P1;SDS_P2;PMS_P1;PMS_P2;Temp;Humidity;BMP_temperature;BMP_pressure;BME280_temperature;BME280_humidity;BME280_pressure;Samples;Min_cycle;Max_cycle;Signal;HPM_P1;HPM_P2
2023/01/21 00:01:13;;;;;;;36.40;18.42;;;;;;;-144.31;100.00;58022.63;5027712;28;20061;-58
2023/01/21 00:03:49;;;;;;;40.30;18.48;;;;;;;-144.31;100.00;58022.63;5033519;28;20371;-58
2023/01/21 00:06:37;;;;;;;39.95;17.70;;;;;;;-144.31;100.00;58022.63;5020687;28;20508;-56
2023/01/21 00:09:08;;;;;;;34.88;15.98;;;;;;;-144.31;100.00;58022.63;5022478;28;20322;-62
2023/01/21 00:11:41;;;;;;;36.00;17.52;;;;;;;-144.31;100.00;58022.63;5023609;28;20516;-56
2023/01/21 00:14:07;;;;;;;34.15;18.25;;;;;;;-144.31;100.00;58022.63;5032038;28;20065;-57
2023/01/21 00:17:24;;;;;;;44.72;21.45;;;;;;;-144.31;100.00;58022.63;5026498;28;20485;-57
2023/01/21 00:19:50;;;;;;;37.55;18.67;;;;;;;-144.31;100.00;58022.63;5027003;28;20052;-53
2023/01/21 00:22:15;;;;;;;37.45;18.63;;;;;;;-144.31;100.00;58022.63;5039028;28;20045;-54
2023/01/21 00:24:40;;;;;;;44.85;20.52;;;;;;;-144.31;100.00;58022.63;5026624;28;20179;-57
2023/01/21 00:27:06;;;;;;;33.25;17.33;;;;;;;-144.31;100.00;58022.63;5038121;28;20105;-53
2023/01/21 00:29:31;;;;;;;42.28;20.85;;;;;;;-144.31;100.00;58022.63;5028285;28;20120;-53
2023/01/21 00:31:57;;;;;;;42.45;19.35;;;;;;;-144.31;100.00;58022.63;5028486;28;20048;-54
2023/01/21 00:34:22;;;;;;;43.03;18.70;;;;;;;-144.31;100.00;58022.63;5033206;28;20055;-60
2023/01/21 00:36:48;;;;;;;34.72;17.05;;;;;;;-144.31;100.00;58022.63;5029214;28;20076;-54
2023/01/21 00:39:13;;;;;;;36.60;17.05;;;;;;;-144.31;100.00;58022.63;5039983;28;20029;-57
2023/01/21 00:41:38;;;;;;;31.83;17.42;;;;;;;-144.31;100.00;58022.63;5029693;28;20484;-59
2023/01/21 00:44:04;;;;;;;35.20;16.08;;;;;;;-144.31;100.00;58022.63;5030634;28;20076;-55
2023/01/21 00:46:30;;;;;;;29.95;15.15;;;;;;;-144.31;100.00;58022.63;5029934;28;20053;-60
2023/01/21 00:48:55;;;;;;;29.52;14.00;;;;;;;-144.31;100.00;58022.63;5030546;28;20387;-58
2023/01/21 00:51:22;;;;;;;26.20;13.25;;;;;;;-144.31;100.00;58022.63;5029972;28;20060;-53
2023/01/21 00:53:47;;;;;;;22.08;11.82;;;;;;;-144.31;100.00;58022.63;5036740;28;20033;-56
2023/01/21 00:56:43;;;;;;;25.33;12.00;;;;;;;-144.31;100.00;58022.63;5028659;28;20518;-57
2023/01/21 00:59:52;;;;;;;20.48;10.88;;;;;;;-144.31;100.00;58022.63;5039329;28;20095;-58
2023/01/21 01:02:25;;;;;;;19.48;9.35;;;;;;;-144.31;100.00;58022.63;5035126;28;20041;-58
2023/01/21 01:04:58;;;;;;;20.45;10.07;;;;;;;-144.31;100.00;58022.63;5030002;28;20136;-57
2023/01/21 01:07:29;;;;;;;19.27;9.20;;;;;;;-144.31;100.00;58022.63;5044541;28;20068;-58
2023/01/21 01:09:56;;;;;;;16.33;8.07;;;;;;;-144.31;100.00;58022.63;5043168;28;20043;-56
2023/01/21 01:12:39;;;;;;;17.35;8.15;;;;;;;-144.31;100.00;58022.63;5033845;28;20051;-53
2023/01/21 01:15:26;;;;;;;10.48;6.90;;;;;;;-144.31;100.00;58022.63;5033415;28;20069;-61
2023/01/21 01:18:00;;;;;;;12.93;7.43;;;;;;;-144.31;100.00;58022.63;5033113;28;20175;-56
2023/01/21 01:20:26;;;;;;;15.73;7.55;;;;;;;-144.31;100.00;58022.63;5029593;28;20602;-58
2023/01/21 01:22:52;;;;;;;16.77;8.07;;;;;;;-144.31;100.00;58022.63;5036990;28;20471;-59
2023/01/21 01:25:22;;;;;;;16.60;7.78;;;;;;;-144.31;100.00;58022.63;5031025;28;20044;-55
2023/01/21 01:28:10;;;;;;;11.38;6.32;;;;;;;-144.31;100.00;58022.63;5033924;28;20041;-56
2023/01/21 01:31:07;;;;;;;10.50;6.43;;;;;;;-144.31;100.00;58022.63;5038267;28;20026;-57
2023/01/21 01:34:09;;;;;;;12.05;6.35;;;;;;;-144.31;100.00;58022.63;5027520;28;20535;-58
2023/01/21 01:36:34;;;;;;;12.95;6.30;;;;;;;-144.31;100.00;58022.63;5032272;28;20041;-59
2023/01/21 01:39:39;;;;;;;12.32;6.88;;;;;;;-144.31;100.00;58022.63;5034315;28;20044;-58
2023/01/21 01:42:42;;;;;;;14.25;6.53;;;;;;;-144.31;100.00;58022.63;5033469;28;20086;-57
2023/01/21 01:45:50;;;;;;;12.00;5.75;;;;;;;-144.31;100.00;58022.63;5028196;28;20112;-56
2023/01/21 01:48:49;;;;;;;12.10;6.57;;;;;;;-144.31;100.00;58022.63;5033669;28;20185;-55
2023/01/21 01:51:51;;;;;;;18.25;7.88;;;;;;;-144.31;100.00;58022.63;5038338;28;20037;-55
2023/01/21 01:54:23;;;;;;;13.82;7.10;;;;;;;-144.31;100.00;58022.63;5029394;28;20040;-57
2023/01/21 01:56:56;;;;;;;18.20;9.18;;;;;;;-144.31;100.00;58022.63;5036467;28;20305;-60
2023/01/21 01:59:43;;;;;;;19.23;8.13;;;;;;;-144.31;100.00;58022.63;5036808;28;20086;-56
2023/01/21 02:02:19;;;;;;;19.25;9.27;;;;;;;-144.31;100.00;58022.63;5035804;28;20045;-54
2023/01/21 02:04:54;;;;;;;17.77;9.27;;;;;;;-144.31;100.00;58022.63;5030297;28;20063;-54
2023/01/21 02:07:48;;;;;;;21.23;8.85;;;;;;;-144.31;100.00;58022.63;5038598;28;20033;-58
2023/01/21 02:10:45;;;;;;;16.83;8.35;;;;;;;-144.31;100.00;58022.63;5036408;28;20517;-57
2023/01/21 02:13:32;;;;;;;;;;;;;;;-144.31;100.00;58022.63;5036672;28;20036;-57
2023/01/21 02:16:16;;;;;;;14.82;6.45;;;;;;;-144.31;100.00;58022.63;5042303;28;19925;-55
2023/01/21 02:19:15;;;;;;;13.82;7.38;;;;;;;-144.31;100.00;58022.63;5036457;28;20037;-57
2023/01/21 02:22:06;;;;;;;15.25;7.80;;;;;;;-144.31;100.00;58022.63;5035587;28;20556;-55
2023/01/21 02:24:56;;;;;;;16.10;8.35;;;;;;;-144.31;100.00;58022.63;5027496;28;20561;-57
2023/01/21 02:27:46;;;;;;;19.42;9.75;;;;;;;-144.31;100.00;58022.63;5033134;28;20405;-54
2023/01/21 02:31:02;;;;;;;15.68;8.05;;;;;;;-144.31;100.00;58022.63;5029524;28;20108;-55
2023/01/21 02:33:42;;;;;;;14.60;7.00;;;;;;;-144.31;100.00;58022.63;5015344;28;20822;-59
2023/01/21 02:36:34;;;;;;;14.65;7.30;;;;;;;-144.31;100.00;58022.63;5033624;28;20131;-57
2023/01/21 02:39:09;;;;;;;18.55;8.88;;;;;;;-144.31;100.00;58022.63;5035798;28;20681;-59
2023/01/21 02:41:43;;;;;;;16.80;9.00;;;;;;;-144.31;100.00;58022.63;5034192;28;20033;-56
2023/01/21 02:44:39;;;;;;;16.85;9.38;;;;;;;-144.31;100.00;58022.63;5033445;28;20045;-56
2023/01/21 02:47:28;;;;;;;20.40;10.60;;;;;;;-144.31;100.00;58022.63;5030505;28;20056;-57
2023/01/21 02:50:09;;;;;;;18.58;9.65;;;;;;;-144.31;100.00;58022.63;5032071;28;20048;-57
2023/01/21 02:52:34;;;;;;;17.58;9.68;;;;;;;-144.31;100.00;58022.63;5031812;28;20361;-53
2023/01/21 02:55:01;;;;;;;19.45;9.63;;;;;;;-144.31;100.00;58022.63;5032180;28;20045;-53
2023/01/21 02:57:29;;;;;;;17.10;9.48;;;;;;;-144.31;100.00;58022.63;5029714;28;20092;-57
2023/01/21 02:59:56;;;;;;;22.13;9.75;;;;;;;-144.31;100.00;58022.63;5033254;28;20047;-54
2023/01/21 03:02:28;;;;;;;19.70;11.07;;;;;;;-144.31;100.00;58022.63;5024388;28;20036;-59
2023/01/21 03:05:21;;;;;;;23.02;10.80;;;;;;;-144.31;100.00;58022.63;5024373;28;20634;-60
2023/01/21 03:07:50;;;;;;;21.17;10.85;;;;;;;-144.31;100.00;58022.63;5037944;28;20065;-55
2023/01/21 03:10:37;;;;;;;28.05;12.23;;;;;;;-144.31;100.00;58022.63;5027287;28;20045;-61
2023/01/21 03:19:11;;;;;;;24.63;11.02;;;;;;;-144.31;100.00;58022.63;5026669;28;20381;-58
2023/01/21 03:21:58;;;;;;;19.58;11.13;;;;;;;-144.31;100.00;58022.63;5031758;28;20044;-57
2023/01/21 03:24:37;;;;;;;18.88;10.38;;;;;;;-144.31;100.00;58022.63;5046768;28;20045;-52
2023/01/21 03:27:05;;;;;;;27.23;11.38;;;;;;;-144.31;100.00;58022.63;5031535;28;20041;-59
2023/01/21 03:29:33;;;;;;;23.15;11.38;;;;;;;-144.31;100.00;58022.63;5027998;28;20114;-58
2023/01/21 03:32:05;;;;;;;22.63;11.10;;;;;;;-144.31;100.00;58022.63;5029246;28;20095;-56
2023/01/21 03:34:37;;;;;;;27.65;12.27;;;;;;;-144.31;100.00;58022.63;5029555;28;20049;-58
2023/01/21 03:37:20;;;;;;;21.00;11.18;;;;;;;-144.31;100.00;58022.63;5031159;28;20535;-57
2023/01/21 03:39:54;;;;;;;18.40;9.73;;;;;;;-144.31;100.00;58022.63;5036173;28;20045;-55
2023/01/21 03:42:21;;;;;;;22.75;11.93;;;;;;;-144.31;100.00;58022.63;5027305;28;20033;-57
2023/01/21 03:44:47;;;;;;;20.85;10.80;;;;;;;-144.31;100.00;58022.63;5036900;28;20045;-58
2023/01/21 03:47:30;;;;;;;18.63;10.52;;;;;;;-144.31;100.00;58022.63;5037687;28;20120;-54
2023/01/21 03:50:12;;;;;;;19.55;10.07;;;;;;;-144.31;100.00;58022.63;5027146;28;20044;-57
2023/01/21 03:53:04;;;;;;;20.98;9.98;;;;;;;-144.31;100.00;58022.63;5033883;28;20041;-52
2023/01/21 03:55:58;;;;;;;18.13;10.88;;;;;;;-144.31;100.00;58022.63;5036769;28;20073;-55
2023/01/21 03:58:32;;;;;;;22.63;10.43;;;;;;;-144.31;100.00;58022.63;5030202;28;20069;-57
2023/01/21 04:01:42;;;;;;;21.45;11.35;;;;;;;-144.31;100.00;58022.63;5033230;28;20124;-57
2023/01/21 04:05:00;;;;;;;23.75;11.55;;;;;;;-144.31;100.00;58022.63;5035480;28;20486;-53
2023/01/21 04:08:13;;;;;;;22.40;11.50;;;;;;;-144.31;100.00;58022.63;5029075;28;20060;-54
2023/01/21 04:11:15;;;;;;;25.35;12.88;;;;;;;-144.31;100.00;58022.63;5024582;28;20044;-57
2023/01/21 04:13:41;;;;;;;27.75;13.82;;;;;;;-144.31;100.00;58022.63;5026273;28;20029;-58
2023/01/21 04:16:07;;;;;;;26.23;14.23;;;;;;;-144.31;100.00;58022.63;5038728;28;20390;-58
2023/01/21 04:18:33;;;;;;;34.85;15.45;;;;;;;-144.31;100.00;58022.63;5026996;28;20038;-53
2023/01/21 04:20:58;;;;;;;29.80;15.73;;;;;;;-144.31;100.00;58022.63;5032582;28;20600;-54
2023/01/21 04:23:24;;;;;;;33.70;17.38;;;;;;;-144.31;100.00;58022.63;5028665;28;20044;-57
2023/01/21 04:25:50;;;;;;;32.42;16.75;;;;;;;-144.31;100.00;58022.63;5032307;28;20111;-53
2023/01/21 04:28:17;;;;;;;36.42;15.30;;;;;;;-144.31;100.00;58022.63;5032952;28;20394;-55
2023/01/21 04:30:42;;;;;;;32.20;16.50;;;;;;;-144.31;100.00;58022.63;5025802;28;20088;-55
2023/01/21 04:33:08;;;;;;;28.27;13.95;;;;;;;-144.31;100.00;58022.63;5054724;28;20548;-56
2023/01/21 04:35:34;;;;;;;36.47;15.82;;;;;;;-144.31;100.00;58022.63;5026295;28;20380;-59
2023/01/21 04:38:00;;;;;;;39.58;19.15;;;;;;;-144.31;100.00;58022.63;5026222;28;20034;-56
2023/01/21 04:40:25;;;;;;;35.90;17.33;;;;;;;-144.31;100.00;58022.63;5038277;28;20111;-58
2023/01/21 04:42:50;;;;;;;35.75;16.52;;;;;;;-144.31;100.00;58022.63;5023795;28;20036;-54
2023/01/21 04:45:16;;;;;;;45.38;18.20;;;;;;;-144.31;100.00;58022.63;5032709;28;20120;-54
2023/01/21 04:47:42;;;;;;;39.55;18.10;;;;;;;-144.31;100.00;58022.63;5022822;28;20038;-55
2023/01/21 04:50:09;;;;;;;52.93;21.07;;;;;;;-144.31;100.00;58022.63;5033846;28;20125;-59
2023/01/21 04:52:35;;;;;;;49.72;23.35;;;;;;;-144.31;100.00;58022.63;5036117;28;20032;-54
2023/01/21 04:55:04;;;;;;;48.97;22.88;;;;;;;-144.31;100.00;58022.63;5022300;28;20064;-55
2023/01/21 04:57:29;;;;;;;57.85;23.35;;;;;;;-144.31;100.00;58022.63;5028165;28;20052;-57
2023/01/21 04:59:54;;;;;;;57.15;23.08;;;;;;;-144.31;100.00;58022.63;5037509;28;20064;-52
2023/01/21 05:02:20;;;;;;;70.07;24.98;;;;;;;-144.31;100.00;58022.63;5026596;28;20041;-54
2023/01/21 05:04:45;;;;;;;59.05;24.27;;;;;;;-144.31;100.00;58022.63;5034571;28;20224;-54
2023/01/21 05:07:11;;;;;;;59.13;25.08;;;;;;;-144.31;100.00;58022.63;5024818;28;20402;-55
2023/01/21 05:09:44;;;;;;;69.93;26.10;;;;;;;-144.31;100.00;58022.63;5026073;28;20078;-58
2023/01/21 05:12:11;;;;;;;59.03;24.88;;;;;;;-144.31;100.00;58022.63;5031661;28;20048;-54
2023/01/21 05:14:36;;;;;;;58.40;25.38;;;;;;;-144.31;100.00;58022.63;5027671;28;20045;-56
2023/01/21 05:17:07;;;;;;;56.17;23.77;;;;;;;-144.31;100.00;58022.63;5031336;28;20102;-56
2023/01/21 05:19:33;;;;;;;67.25;24.45;;;;;;;-144.31;100.00;58022.63;5029612;28;20072;-56
2023/01/21 05:22:00;;;;;;;64.70;24.83;;;;;;;-144.31;100.00;58022.63;5025745;28;20555;-57
2023/01/21 05:24:25;;;;;;;52.40;22.48;;;;;;;-144.31;100.00;58022.63;5030671;28;20049;-56
2023/01/21 05:26:54;;;;;;;65.57;25.55;;;;;;;-144.31;100.00;58022.63;5031277;28;20033;-54
2023/01/21 05:29:24;;;;;;;65.05;25.55;;;;;;;-144.31;100.00;58022.63;5036320;28;20565;-57
2023/01/21 05:32:06;;;;;;;62.00;25.15;;;;;;;-144.31;100.00;58022.63;5024828;28;20036;-57
2023/01/21 05:34:32;;;;;;;72.82;26.67;;;;;;;-144.31;100.00;58022.63;5020270;28;20128;-57
2023/01/21 05:37:01;;;;;;;58.60;25.23;;;;;;;-144.31;100.00;58022.63;5035234;28;20087;-55
2023/01/21 05:39:27;;;;;;;68.53;27.00;;;;;;;-144.31;100.00;58022.63;5024632;28;20048;-59
2023/01/21 05:42:11;;;;;;;71.63;25.73;;;;;;;-144.31;100.00;58022.63;5038845;28;20091;-55
2023/01/21 05:44:39;;;;;;;70.07;25.95;;;;;;;-144.31;100.00;58022.63;5039132;28;20040;-55
2023/01/21 05:47:07;;;;;;;68.53;25.65;;;;;;;-144.31;100.00;58022.63;5027733;28;20495;-59
2023/01/21 05:49:37;;;;;;;64.32;24.55;;;;;;;-144.31;100.00;58022.63;5040369;28;20040;-54
2023/01/21 05:52:03;;;;;;;63.42;24.63;;;;;;;-144.31;100.00;58022.63;5023434;28;20092;-59
2023/01/21 05:54:30;;;;;;;;;;;;;;;-144.31;100.00;58022.63;5026626;28;20045;-56
2023/01/21 05:56:56;;;;;;;63.70;25.13;;;;;;;-144.31;100.00;58022.63;5036130;28;19946;-56
2023/01/21 05:59:31;;;;;;;67.50;23.90;;;;;;;-144.31;100.00;58022.63;5034803;28;20045;-55
2023/01/21 06:02:17;;;;;;;60.40;23.05;;;;;;;-144.31;100.00;58022.63;5035004;28;20072;-62
2023/01/21 06:04:51;;;;;;;42.38;17.77;;;;;;;-144.31;100.00;58022.63;5034569;28;20040;-55
2023/01/21 06:07:22;;;;;;;62.20;23.50;;;;;;;-144.31;100.00;58022.63;5026795;28;20033;-57
2023/01/21 06:10:34;;;;;;;59.10;23.48;;;;;;;-144.31;100.00;58022.63;5038000;28;20049;-53
2023/01/21 06:13:34;;;;;;;61.20;21.77;;;;;;;-144.31;100.00;58022.63;5032371;28;20041;-58
2023/01/21 06:16:00;;;;;;;65.07;23.58;;;;;;;-144.31;100.00;58022.63;5020453;28;20128;-57
2023/01/21 06:18:25;;;;;;;54.90;21.50;;;;;;;-144.31;100.00;58022.63;5029395;28;20474;-56
2023/01/21 06:20:51;;;;;;;59.10;22.10;;;;;;;-144.31;100.00;58022.63;5038617;28;20136;-53
2023/01/21 06:23:17;;;;;;;67.03;21.90;;;;;;;-144.31;100.00;58022.63;5027731;28;20116;-58
2023/01/21 06:25:42;;;;;;;57.03;21.70;;;;;;;-144.31;100.00;58022.63;5036003;28;20490;-56
2023/01/21 06:28:10;;;;;;;83.47;32.70;;;;;;;-144.31;100.00;58022.63;5024708;28;20078;-57
2023/01/21 06:30:36;;;;;;;58.00;21.00;;;;;;;-144.31;100.00;58022.63;5027796;28;20051;-57
2023/01/21 06:33:02;;;;;;;69.30;24.00;;;;;;;-144.31;100.00;58022.63;5034753;28;20033;-59
2023/01/21 06:35:27;;;;;;;61.33;23.23;;;;;;;-144.31;100.00;58022.63;5027532;28;20072;-55
2023/01/21 06:37:53;;;;;;;68.63;22.90;;;;;;;-144.31;100.00;58022.63;5036280;28;20401;-56
2023/01/21 06:40:18;;;;;;;70.20;23.42;;;;;;;-144.31;100.00;58022.63;5024350;28;20079;-54
2023/01/21 06:42:45;;;;;;;67.68;24.52;;;;;;;-144.31;100.00;58022.63;5026482;28;20339;-55
2023/01/21 06:45:11;;;;;;;69.60;26.70;;;;;;;-144.31;100.00;58022.63;5034319;28;20049;-58
2023/01/21 06:47:40;;;;;;;63.80;24.05;;;;;;;-144.31;100.00;58022.63;5030976;28;20036;-59
2023/01/21 06:50:06;;;;;;;72.30;24.90;;;;;;;-144.31;100.00;58022.63;5033755;28;20082;-56
2023/01/21 06:52:31;;;;;;;63.50;22.35;;;;;;;-144.31;100.00;58022.63;5029213;28;20445;-58
2023/01/21 06:54:56;;;;;;;66.95;24.17;;;;;;;-144.31;100.00;58022.63;5026633;28;20026;-57
2023/01/21 06:57:22;;;;;;;66.53;22.58;;;;;;;-144.31;100.00;58022.63;5035745;28;20118;-56
2023/01/21 06:59:47;;;;;;;70.40;26.00;;;;;;;-144.31;100.00;58022.63;5028810;28;20033;-58
2023/01/21 07:02:13;;;;;;;67.65;25.65;;;;;;;-144.31;100.00;58022.63;5034551;28;20042;-55
2023/01/21 07:04:38;;;;;;;63.17;22.52;;;;;;;-144.31;100.00;58022.63;5024127;28;20033;-54
2023/01/21 07:07:03;;;;;;;61.90;22.88;;;;;;;-144.31;100.00;58022.63;5025490;28;20528;-57
2023/01/21 07:09:29;;;;;;;66.00;23.65;;;;;;;-144.31;100.00;58022.63;5033165;28;20094;-55
2023/01/21 07:11:54;;;;;;;67.40;22.35;;;;;;;-144.31;100.00;58022.63;5027875;28;20032;-59
2023/01/21 07:14:20;;;;;;;64.75;22.42;;;;;;;-144.31;100.00;58022.63;5033959;28;20125;-56
2023/01/21 07:16:45;;;;;;;60.83;22.73;;;;;;;-144.31;100.00;58022.63;5031631;28;20036;-58
2023/01/21 07:19:11;;;;;;;63.63;22.75;;;;;;;-144.31;100.00;58022.63;5025102;28;20037;-57
2023/01/21 07:21:36;;;;;;;70.63;22.98;;;;;;;-144.31;100.00;58022.63;5034061;28;20441;-59
2023/01/21 07:24:02;;;;;;;76.22;23.80;;;;;;;-144.31;100.00;58022.63;5021960;28;20052;-56
2023/01/21 07:26:27;;;;;;;67.18;22.33;;;;;;;-144.31;100.00;58022.63;5037782;28;20048;-58
2023/01/21 07:28:53;;;;;;;72.63;23.35;;;;;;;-144.31;100.00;58022.63;5021970;28;20041;-61
2023/01/21 07:31:18;;;;;;;76.40;23.73;;;;;;;-144.31;100.00;58022.63;5027787;28;20099;-60
2023/01/21 07:33:43;;;;;;;73.35;23.52;;;;;;;-144.31;100.00;58022.63;5033544;28;20108;-56
2023/01/21 07:36:09;;;;;;;65.55;23.45;;;;;;;-144.31;100.00;58022.63;5028294;28;20099;-55
2023/01/21 07:38:34;;;;;;;69.93;23.58;;;;;;;-144.31;100.00;58022.63;5033417;28;20029;-58
2023/01/21 07:41:00;;;;;;;73.88;22.67;;;;;;;-144.31;100.00;58022.63;5025888;28;20763;-56
2023/01/21 07:43:27;;;;;;;65.10;22.65;;;;;;;-144.31;100.00;58022.63;5023958;28;20030;-53
2023/01/21 07:45:53;;;;;;;70.97;24.02;;;;;;;-144.31;100.00;58022.63;5032245;28;20806;-56
2023/01/21 07:48:19;;;;;;;63.75;23.65;;;;;;;-144.31;100.00;58022.63;5029112;28;20029;-58
2023/01/21 07:50:44;;;;;;;55.90;21.90;;;;;;;-144.31;100.00;58022.63;5031582;28;20064;-55
2023/01/21 07:53:11;;;;;;;61.17;22.98;;;;;;;-144.31;100.00;58022.63;5024005;28;20069;-56
2023/01/21 07:55:36;;;;;;;67.60;23.17;;;;;;;-144.31;100.00;58022.63;5030178;28;20056;-54
2023/01/21 07:58:02;;;;;;;65.93;22.02;;;;;;;-144.31;100.00;58022.63;5032060;28;20053;-58
2023/01/21 08:00:28;;;;;;;56.72;21.35;;;;;;;-144.31;100.00;58022.63;5026522;28;20041;-59
2023/01/21 08:02:54;;;;;;;68.50;22.88;;;;;;;-144.31;100.00;58022.63;5029350;28;20045;-55
2023/01/21 08:05:21;;;;;;;60.75;23.80;;;;;;;-144.31;100.00;58022.63;5024864;28;20032;-56
2023/01/21 08:07:46;;;;;;;78.65;28.88;;;;;;;-144.31;100.00;58022.63;5029505;28;20041;-59
2023/01/21 08:10:11;;;;;;;105.93;38.70;;;;;;;-144.31;100.00;58022.63;5031017;28;20048;-57
2023/01/21 08:12:42;;;;;;;122.93;49.83;;;;;;;-144.31;100.00;58022.63;5029686;28;20029;-58
2023/01/21 08:15:08;;;;;;;89.50;34.13;;;;;;;-144.31;100.00;58022.63;5028509;28;20040;-58
2023/01/21 08:17:41;;;;;;;67.53;27.13;;;;;;;-144.31;100.00;58022.63;5034071;28;20052;-54
2023/01/21 08:20:08;;;;;;;77.20;25.77;;;;;;;-144.31;100.00;58022.63;5029028;28;20033;-53
2023/01/21 08:22:34;;;;;;;67.35;25.15;;;;;;;-144.31;100.00;58022.63;5033716;28;20033;-59
2023/01/21 08:24:59;;;;;;;70.95;26.50;;;;;;;-144.31;100.00;58022.63;5025605;28;20052;-58
2023/01/21 08:27:25;;;;;;;63.72;23.58;;;;;;;-144.31;100.00;58022.63;5031182;28;20438;-60
2023/01/21 08:29:50;;;;;;;74.18;27.83;;;;;;;-144.31;100.00;58022.63;5032381;28;20486;-58
2023/01/21 08:32:16;;;;;;;65.63;23.45;;;;;;;-144.31;100.00;58022.63;5030133;28;20051;-57
2023/01/21 08:34:41;;;;;;;68.53;24.95;;;;;;;-144.31;100.00;58022.63;5036297;28;20036;-53
2023/01/21 08:37:07;;;;;;;66.68;25.58;;;;;;;-144.31;100.00;58022.63;5033688;28;20538;-54
2023/01/21 08:39:35;;;;;;;66.88;25.25;;;;;;;-144.31;100.00;58022.63;5027813;28;20045;-59
2023/01/21 08:42:00;;;;;;;71.10;24.15;;;;;;;-144.31;100.00;58022.63;5037948;28;20069;-56
2023/01/21 08:44:26;;;;;;;64.90;21.85;;;;;;;-144.31;100.00;58022.63;5028814;28;20087;-58
2023/01/21 08:46:51;;;;;;;56.05;23.15;;;;;;;-144.31;100.00;58022.63;5030867;28;20049;-56
2023/01/21 08:49:17;;;;;;;52.17;21.83;;;;;;;-144.31;100.00;58022.63;5021621;28;20091;-58
2023/01/21 08:51:45;;;;;;;63.33;21.35;;;;;;;-144.31;100.00;58022.63;5028054;28;20562;-56
2023/01/21 08:54:10;;;;;;;65.75;25.38;;;;;;;-144.31;100.00;58022.63;5034443;28;20041;-58
2023/01/21 08:56:36;;;;;;;59.08;24.08;;;;;;;-144.31;100.00;58022.63;5028374;28;20040;-55
2023/01/21 08:59:01;;;;;;;54.78;24.33;;;;;;;-144.31;100.00;58022.63;5033003;28;20504;-56
2023/01/21 09:01:28;;;;;;;62.13;24.30;;;;;;;-144.31;100.00;58022.63;5024905;28;20377;-54
2023/01/21 09:03:54;;;;;;;61.90;24.58;;;;;;;-144.31;100.00;58022.63;5024832;28;20037;-57
2023/01/21 09:06:20;;;;;;;58.00;23.88;;;;;;;-144.31;100.00;58022.63;5029794;28;20021;-59
2023/01/21 09:08:45;;;;;;;60.20;24.27;;;;;;;-144.31;100.00;58022.63;5027156;28;20055;-55
2023/01/21 09:11:11;;;;;;;59.70;22.73;;;;;;;-144.31;100.00;58022.63;5034314;28;20608;-58
2023/01/21 09:13:38;;;;;;;56.90;23.10;;;;;;;-144.31;100.00;58022.63;5032968;28;20947;-53
2023/01/21 09:16:12;;;;;;;51.55;21.77;;;;;;;-144.31;100.00;58022.63;5031166;28;20041;-57
2023/01/21 09:18:37;;;;;;;48.00;19.23;;;;;;;-144.31;100.00;58022.63;5040052;28;20075;-56
2023/01/21 09:21:04;;;;;;;53.33;21.02;;;;;;;-144.31;100.00;58022.63;5028370;28;20175;-59
2023/01/21 09:23:32;;;;;;;52.92;20.33;;;;;;;-144.31;100.00;58022.63;5036252;28;20736;-58
2023/01/21 09:26:11;;;;;;;55.08;21.20;;;;;;;-144.31;100.00;58022.63;5030527;28;20045;-54
2023/01/21 09:28:38;;;;;;;48.97;19.65;;;;;;;-144.31;100.00;58022.63;5028300;28;21200;-54
2023/01/21 09:31:10;;;;;;;52.92;20.15;;;;;;;-144.31;100.00;58022.63;5032700;28;20036;-54
2023/01/21 09:33:39;;;;;;;44.08;18.38;;;;;;;-144.31;100.00;58022.63;5030147;28;20140;-55
2023/01/21 09:36:06;;;;;;;49.38;19.92;;;;;;;-144.31;100.00;58022.63;5028649;28;20037;-55
2023/01/21 09:38:32;;;;;;;49.58;20.50;;;;;;;-144.31;100.00;58022.63;5037104;28;20056;-58
2023/01/21 09:41:12;;;;;;;47.60;21.38;;;;;;;-144.31;100.00;58022.63;5029636;28;20448;-58
2023/01/21 09:43:44;;;;;;;49.80;22.60;;;;;;;-144.31;100.00;58022.63;5036593;28;20038;-57
2023/01/21 09:46:23;;;;;;;57.60;23.70;;;;;;;-144.31;100.00;58022.63;5028188;28;20080;-56
2023/01/21 09:48:50;;;;;;;56.13;22.67;;;;;;;-144.31;100.00;58022.63;5032072;28;20095;-55
2023/01/21 09:51:25;;;;;;;51.27;22.60;;;;;;;-144.31;100.00;58022.63;5032998;28;20033;-54
2023/01/21 09:53:53;;;;;;;57.20;21.30;;;;;;;-144.31;100.00;58022.63;5036852;28;20638;-57
2023/01/21 09:56:49;;;;;;;55.75;22.48;;;;;;;-144.31;100.00;58022.63;5002646;28;20445;-56
2023/01/21 09:59:22;;;;;;;52.97;23.58;;;;;;;-144.31;100.00;58022.63;5035359;28;20037;-57
2023/01/21 10:01:50;;;;;;;49.22;21.00;;;;;;;-144.31;100.00;58022.63;5027415;28;20173;-55
2023/01/21 10:04:43;;;;;;;46.38;20.23;;;;;;;-144.31;100.00;58022.63;5028585;28;20480;-54
2023/01/21 10:07:20;;;;;;;40.13;19.38;;;;;;;-144.31;100.00;58022.63;5031771;28;20152;-59
2023/01/21 10:09:56;;;;;;;52.22;23.60;;;;;;;-144.31;100.00;58022.63;5030612;28;20029;-59
2023/01/21 10:12:24;;;;;;;49.58;22.20;;;;;;;-144.31;100.00;58022.63;5023755;28;20045;-57
2023/01/21 10:15:22;;;;;;;58.53;24.25;;;;;;;-144.31;100.00;58022.63;5029021;28;20099;-56
2023/01/21 10:17:54;;;;;;;54.05;21.88;;;;;;;-144.31;100.00;58022.63;5028701;28;20069;-58
2023/01/21 10:20:25;;;;;;;59.05;24.45;;;;;;;-144.31;100.00;58022.63;5028474;28;20563;-53
2023/01/21 10:23:02;;;;;;;44.92;20.58;;;;;;;-144.31;100.00;58022.63;5036833;28;20041;-57
2023/01/21 10:25:32;;;;;;;45.63;22.15;;;;;;;-144.31;100.00;58022.63;5028523;28;20045;-57
2023/01/21 10:28:04;;;;;;;50.45;21.67;;;;;;;-144.31;100.00;58022.63;5034324;28;20053;-58
2023/01/21 10:30:37;;;;;;;50.58;22.33;;;;;;;-144.31;100.00;58022.63;5027362;28;20068;-57
2023/01/21 10:33:05;;;;;;;52.35;23.35;;;;;;;-144.31;100.00;58022.63;5030994;28;20076;-59
2023/01/21 10:35:52;;;;;;;44.90;20.40;;;;;;;-144.31;100.00;58022.63;5033643;28;20041;-58
2023/01/21 10:38:35;;;;;;;43.83;20.60;;;;;;;-144.31;100.00;58022.63;5026283;28;20096;-55
2023/01/21 10:41:19;;;;;;;43.72;18.27;;;;;;;-144.31;100.00;58022.63;5026900;28;20052;-58
2023/01/21 10:43:59;;;;;;;53.25;20.05;;;;;;;-144.31;100.00;58022.63;5040968;28;20091;-57
2023/01/21 10:46:34;;;;;;;34.50;14.25;;;;;;;-144.31;100.00;58022.63;5036966;28;20033;-56
2023/01/21 10:49:16;;;;;;;45.17;18.05;;;;;;;-144.31;100.00;58022.63;5034826;28;20048;-58
2023/01/21 10:51:48;;;;;;;59.13;20.92;;;;;;;-144.31;100.00;58022.63;5031934;28;20041;-58
2023/01/21 10:54:35;;;;;;;50.47;21.42;;;;;;;-144.31;100.00;58022.63;5025274;28;20102;-55
2023/01/21 10:57:09;;;;;;;44.20;16.48;;;;;;;-144.31;100.00;58022.63;5029736;28;20111;-56
2023/01/21 10:59:37;;;;;;;40.00;16.83;;;;;;;-144.31;100.00;58022.63;5036360;28;20030;-52
2023/01/21 11:02:27;;;;;;;36.05;15.77;;;;;;;-144.31;100.00;58022.63;5028878;28;20290;-58
2023/01/21 11:04:53;;;;;;;38.67;16.90;;;;;;;-144.31;100.00;58022.63;5028113;28;20089;-58
2023/01/21 11:07:20;;;;;;;38.00;16.15;;;;;;;-144.31;100.00;58022.63;5032051;28;20039;-59
2023/01/21 11:09:47;;;;;;;35.40;14.43;;;;;;;-144.31;100.00;58022.63;5023854;28;20136;-59
2023/01/21 11:12:16;;;;;;;37.88;18.10;;;;;;;-144.31;100.00;58022.63;5030956;28;20048;-57
2023/01/21 11:14:48;;;;;;;46.75;20.48;;;;;;;-144.31;100.00;58022.63;5033611;28;20035;-55
2023/01/21 11:17:28;;;;;;;39.08;18.73;;;;;;;-144.31;100.00;58022.63;5029173;28;20037;-54
2023/01/21 11:19:59;;;;;;;40.33;16.08;;;;;;;-144.31;100.00;58022.63;5030402;28;20057;-57
2023/01/21 11:22:30;;;;;;;36.47;16.02;;;;;;;-144.31;100.00;58022.63;5029946;28;20043;-57
2023/01/21 11:24:55;;;;;;;34.20;15.88;;;;;;;-144.31;100.00;58022.63;5025641;28;20068;-53
2023/01/21 11:27:30;;;;;;;37.50;17.02;;;;;;;-144.31;100.00;58022.63;5031320;28;20037;-57